BVX355B LIMC-EGLL
Flight info
| Callsign | BVX355B |
|---|---|
| Flight time | 1h 24m |
| Altitude | 36000 |
| Route | AOSTA DCT ORSUD DCT MOLUS DCT IBODI DCT GOTED DCT TRO DCT CLM DCT KOPOR DCT ABNUR DCT DIMAL DCT ALESO |
| Aircraft | A35K/H-SDE2E3GHIJ3J4J5LM1ORWXY/LB1D1 |
Departure
| Time | 2026-05-04 00:55 |
|---|---|
| Airport | Milan Malpensa International Airport (LIMC) |
Arrival
| Time | 2026-05-04 02:19 |
|---|---|
| Airport | London Heathrow Airport (EGLL) |
| Time | Latitude | Longitude | Altitude | Speed | Heading |
|---|---|---|---|---|---|
| 2026-05-04 00:30 | 45.61911 | 8.72117 | 725 ft | 0 kts | 78° |
| 2026-05-04 00:45 | 45.61911 | 8.72116 | 722 ft | 2 kts | 78° |
| 2026-05-04 00:45 | 45.61906 | 8.72084 | 726 ft | 2 kts | 79° |
| 2026-05-04 00:45 | 45.61906 | 8.72052 | 723 ft | 4 kts | 129° |
| 2026-05-04 00:45 | 45.61927 | 8.72033 | 722 ft | 4 kts | 166° |
| 2026-05-04 00:46 | 45.61947 | 8.72027 | 720 ft | 1 kts | 169° |
| 2026-05-04 00:46 | 45.61950 | 8.72026 | 725 ft | 0 kts | 169° |
| 2026-05-04 00:49 | 45.61949 | 8.72027 | 725 ft | 0 kts | 169° |
| 2026-05-04 00:50 | 45.61936 | 8.72030 | 721 ft | 4 kts | 169° |
| 2026-05-04 00:50 | 45.61904 | 8.72039 | 723 ft | 6 kts | 169° |
| 2026-05-04 00:50 | 45.61856 | 8.72057 | 726 ft | 8 kts | 152° |
| 2026-05-04 00:50 | 45.61842 | 8.72124 | 725 ft | 8 kts | 84° |
| 2026-05-04 00:51 | 45.61850 | 8.72213 | 727 ft | 10 kts | 80° |
| 2026-05-04 00:51 | 45.61859 | 8.72319 | 725 ft | 11 kts | 99° |
| 2026-05-04 00:51 | 45.61799 | 8.72377 | 727 ft | 12 kts | 167° |
| 2026-05-04 00:51 | 45.61712 | 8.72402 | 726 ft | 14 kts | 169° |
| 2026-05-04 00:52 | 45.61613 | 8.72429 | 726 ft | 15 kts | 169° |
| 2026-05-04 00:52 | 45.61526 | 8.72454 | 726 ft | 14 kts | 169° |
| 2026-05-04 00:52 | 45.61464 | 8.72471 | 723 ft | 6 kts | 169° |
| 2026-05-04 00:52 | 45.61424 | 8.72497 | 727 ft | 6 kts | 128° |
| 2026-05-04 00:53 | 45.61424 | 8.72541 | 727 ft | 4 kts | 81° |
| 2026-05-04 00:53 | 45.61426 | 8.72556 | 725 ft | 3 kts | 81° |
| 2026-05-04 00:53 | 45.61431 | 8.72603 | 724 ft | 7 kts | 81° |
| 2026-05-04 00:53 | 45.61449 | 8.72665 | 726 ft | 5 kts | 58° |
| 2026-05-04 00:54 | 45.61478 | 8.72708 | 726 ft | 6 kts | 34° |
| 2026-05-04 00:54 | 45.61521 | 8.72712 | 724 ft | 7 kts | 347° |
| 2026-05-04 00:54 | 45.61604 | 8.72688 | 725 ft | 23 kts | 349° |
| 2026-05-04 00:54 | 45.61913 | 8.72602 | 725 ft | 75 kts | 349° |
| 2026-05-04 00:55 | 45.62636 | 8.72402 | 721 ft | 134 kts | 349° |
| 2026-05-04 00:55 | 45.63718 | 8.72106 | 810 ft | 175 kts | 349° |
| 2026-05-04 00:55 | 45.64853 | 8.71741 | 1514 ft | 168 kts | 340° |
| 2026-05-04 00:55 | 45.65876 | 8.70935 | 2048 ft | 173 kts | 325° |
| 2026-05-04 00:56 | 45.66911 | 8.69999 | 2565 ft | 178 kts | 325° |
| 2026-05-04 00:56 | 45.67958 | 8.69030 | 3100 ft | 181 kts | 322° |
| 2026-05-04 00:56 | 45.68949 | 8.67919 | 3630 ft | 182 kts | 319° |
| 2026-05-04 00:56 | 45.69942 | 8.66749 | 4038 ft | 193 kts | 319° |
| 2026-05-04 00:57 | 45.71035 | 8.65463 | 4293 ft | 214 kts | 320° |
| 2026-05-04 00:57 | 45.72241 | 8.64050 | 4632 ft | 232 kts | 321° |
| 2026-05-04 00:57 | 45.73254 | 8.62221 | 5140 ft | 240 kts | 292° |
| 2026-05-04 00:57 | 45.73496 | 8.59881 | 5783 ft | 240 kts | 261° |
| 2026-05-04 00:58 | 45.72889 | 8.57688 | 6499 ft | 238 kts | 233° |
| 2026-05-04 00:58 | 45.71851 | 8.55831 | 7231 ft | 239 kts | 228° |
| 2026-05-04 00:58 | 45.70758 | 8.54031 | 8008 ft | 240 kts | 227° |
| 2026-05-04 00:58 | 45.69667 | 8.52223 | 8782 ft | 240 kts | 228° |
| 2026-05-04 00:59 | 45.68581 | 8.50403 | 9582 ft | 241 kts | 228° |
| 2026-05-04 00:59 | 45.67508 | 8.48593 | 10326 ft | 242 kts | 228° |
| 2026-05-04 00:59 | 45.66417 | 8.46746 | 10914 ft | 244 kts | 228° |
| 2026-05-04 00:59 | 45.65319 | 8.44886 | 11607 ft | 246 kts | 228° |
| 2026-05-04 01:00 | 45.64215 | 8.43015 | 12363 ft | 246 kts | 228° |
| 2026-05-04 01:00 | 45.63111 | 8.41141 | 13129 ft | 247 kts | 228° |
| 2026-05-04 01:00 | 45.61994 | 8.39240 | 13742 ft | 255 kts | 228° |
| 2026-05-04 01:00 | 45.60817 | 8.37240 | 14072 ft | 272 kts | 228° |
| 2026-05-04 01:01 | 45.59563 | 8.35107 | 14374 ft | 289 kts | 229° |
| 2026-05-04 01:01 | 45.58424 | 8.32642 | 14639 ft | 308 kts | 245° |
| 2026-05-04 01:01 | 45.58037 | 8.29548 | 14887 ft | 331 kts | 271° |
| 2026-05-04 01:01 | 45.58564 | 8.26256 | 15195 ft | 350 kts | 285° |
| 2026-05-04 01:02 | 45.59388 | 8.22903 | 15490 ft | 365 kts | 287° |
| 2026-05-04 01:02 | 45.60245 | 8.19433 | 15918 ft | 375 kts | 286° |
| 2026-05-04 01:02 | 45.61098 | 8.15889 | 16477 ft | 380 kts | 285° |
| 2026-05-04 01:02 | 45.61945 | 8.12307 | 17103 ft | 383 kts | 285° |
| 2026-05-04 01:03 | 45.62793 | 8.08685 | 17769 ft | 386 kts | 285° |
| 2026-05-04 01:03 | 45.63632 | 8.05076 | 18383 ft | 389 kts | 285° |
| 2026-05-04 01:03 | 45.64485 | 8.01386 | 18955 ft | 393 kts | 286° |
| 2026-05-04 01:03 | 45.65343 | 7.97667 | 19568 ft | 396 kts | 285° |
| 2026-05-04 01:04 | 45.66204 | 7.93922 | 20004 ft | 397 kts | 285° |
| 2026-05-04 01:04 | 45.67071 | 7.90157 | 20522 ft | 401 kts | 286° |
| 2026-05-04 01:04 | 45.67944 | 7.86360 | 21169 ft | 403 kts | 285° |
| 2026-05-04 01:04 | 45.68818 | 7.82531 | 21831 ft | 405 kts | 285° |
| 2026-05-04 01:05 | 45.69693 | 7.78692 | 22446 ft | 408 kts | 285° |
| 2026-05-04 01:05 | 45.70574 | 7.74818 | 23046 ft | 411 kts | 285° |
| 2026-05-04 01:05 | 45.71461 | 7.70914 | 23664 ft | 414 kts | 284° |
| 2026-05-04 01:05 | 45.72355 | 7.66977 | 24161 ft | 418 kts | 284° |
| 2026-05-04 01:06 | 45.73254 | 7.63007 | 24640 ft | 421 kts | 284° |
| 2026-05-04 01:06 | 45.74158 | 7.59012 | 25171 ft | 422 kts | 284° |
| 2026-05-04 01:06 | 45.75064 | 7.54996 | 25656 ft | 425 kts | 284° |
| 2026-05-04 01:06 | 45.75973 | 7.50959 | 26154 ft | 428 kts | 284° |
| 2026-05-04 01:07 | 45.76890 | 7.46879 | 26661 ft | 431 kts | 284° |
| 2026-05-04 01:07 | 45.77822 | 7.42792 | 27136 ft | 434 kts | 285° |
| 2026-05-04 01:07 | 45.78998 | 7.38778 | 27598 ft | 441 kts | 294° |
| 2026-05-04 01:07 | 45.80562 | 7.34965 | 28055 ft | 447 kts | 300° |
| 2026-05-04 01:08 | 45.82453 | 7.31393 | 28504 ft | 453 kts | 307° |
| 2026-05-04 01:08 | 45.83856 | 7.29155 | 28809 ft | 456 kts | 309° |
| 2026-05-04 01:08 | 45.86108 | 7.25927 | 29242 ft | 461 kts | 312° |
| 2026-05-04 01:08 | 45.88471 | 7.22787 | 29687 ft | 465 kts | 314° |
| 2026-05-04 01:09 | 45.90889 | 7.19674 | 30131 ft | 468 kts | 314° |
| 2026-05-04 01:09 | 45.94119 | 7.15537 | 30599 ft | 471 kts | 314° |
| 2026-05-04 01:09 | 45.95773 | 7.13410 | 30820 ft | 473 kts | 314° |
| 2026-05-04 01:09 | 45.99010 | 7.09201 | 31273 ft | 475 kts | 313° |
| 2026-05-04 01:10 | 46.00630 | 7.07074 | 31503 ft | 476 kts | 313° |
| 2026-05-04 01:10 | 46.03104 | 7.03808 | 31807 ft | 478 kts | 313° |
| 2026-05-04 01:10 | 46.05561 | 7.00554 | 32109 ft | 480 kts | 313° |
| 2026-05-04 01:10 | 46.08022 | 6.97287 | 32403 ft | 482 kts | 313° |
| 2026-05-04 01:11 | 46.10484 | 6.94016 | 32782 ft | 482 kts | 313° |
| 2026-05-04 01:11 | 46.12913 | 6.90787 | 33217 ft | 480 kts | 313° |
| 2026-05-04 01:11 | 46.15364 | 6.87526 | 33639 ft | 479 kts | 313° |
| 2026-05-04 01:11 | 46.17807 | 6.84268 | 34047 ft | 477 kts | 312° |
| 2026-05-04 01:12 | 46.20232 | 6.81032 | 34494 ft | 473 kts | 312° |
| 2026-05-04 01:12 | 46.22639 | 6.77816 | 34806 ft | 472 kts | 312° |
| 2026-05-04 01:12 | 46.25055 | 6.74580 | 34911 ft | 475 kts | 312° |
| 2026-05-04 01:12 | 46.27481 | 6.71327 | 35039 ft | 476 kts | 312° |
| 2026-05-04 01:13 | 46.29912 | 6.68066 | 35322 ft | 475 kts | 312° |
| 2026-05-04 01:13 | 46.32324 | 6.64830 | 35632 ft | 474 kts | 312° |
| 2026-05-04 01:13 | 46.34741 | 6.61582 | 35869 ft | 472 kts | 312° |
| 2026-05-04 01:13 | 46.37151 | 6.58338 | 36146 ft | 472 kts | 312° |
| 2026-05-04 01:14 | 46.39555 | 6.55104 | 36408 ft | 471 kts | 312° |
| 2026-05-04 01:14 | 46.41951 | 6.51874 | 36649 ft | 471 kts | 312° |
| 2026-05-04 01:14 | 46.44349 | 6.48631 | 36866 ft | 470 kts | 312° |
| 2026-05-04 01:14 | 46.46741 | 6.45391 | 37072 ft | 470 kts | 312° |
| 2026-05-04 01:15 | 46.49133 | 6.42146 | 37283 ft | 470 kts | 312° |
| 2026-05-04 01:15 | 46.51526 | 6.38898 | 37478 ft | 471 kts | 312° |
| 2026-05-04 01:15 | 46.53911 | 6.35658 | 37674 ft | 470 kts | 312° |
| 2026-05-04 01:15 | 46.56298 | 6.32412 | 37881 ft | 470 kts | 312° |
| 2026-05-04 01:16 | 46.58682 | 6.29164 | 38040 ft | 470 kts | 312° |
| 2026-05-04 01:16 | 46.63482 | 6.22611 | 38064 ft | 476 kts | 312° |
| 2026-05-04 01:17 | 46.68275 | 6.16055 | 38059 ft | 475 kts | 312° |
| 2026-05-04 01:17 | 46.73121 | 6.09414 | 38083 ft | 475 kts | 312° |
| 2026-05-04 01:18 | 46.77915 | 6.02822 | 38057 ft | 478 kts | 313° |
| 2026-05-04 01:18 | 46.82750 | 5.96158 | 38053 ft | 478 kts | 313° |
| 2026-05-04 01:19 | 46.87584 | 5.89478 | 38053 ft | 478 kts | 313° |
| 2026-05-04 01:19 | 46.92417 | 5.82785 | 38040 ft | 478 kts | 313° |
| 2026-05-04 01:20 | 46.97242 | 5.76087 | 38045 ft | 478 kts | 312° |
| 2026-05-04 01:20 | 47.02063 | 5.69368 | 38036 ft | 478 kts | 312° |
| 2026-05-04 01:21 | 47.06878 | 5.62638 | 38047 ft | 478 kts | 312° |
| 2026-05-04 01:21 | 47.11654 | 5.55951 | 38016 ft | 478 kts | 312° |
| 2026-05-04 01:22 | 47.16465 | 5.49197 | 38012 ft | 478 kts | 312° |
| 2026-05-04 01:22 | 47.21271 | 5.42431 | 38032 ft | 478 kts | 312° |
| 2026-05-04 01:23 | 47.26065 | 5.35665 | 38022 ft | 478 kts | 312° |
| 2026-05-04 01:23 | 47.30876 | 5.28856 | 38019 ft | 480 kts | 311° |
| 2026-05-04 01:24 | 47.35686 | 5.22032 | 38021 ft | 480 kts | 311° |
| 2026-05-04 01:24 | 47.40499 | 5.15197 | 38021 ft | 480 kts | 311° |
| 2026-05-04 01:25 | 47.45296 | 5.08350 | 38018 ft | 480 kts | 311° |
| 2026-05-04 01:25 | 47.50064 | 5.01525 | 38025 ft | 480 kts | 311° |
| 2026-05-04 01:26 | 47.54871 | 4.94627 | 38010 ft | 483 kts | 311° |
| 2026-05-04 01:26 | 47.59701 | 4.87680 | 38010 ft | 484 kts | 311° |
| 2026-05-04 01:27 | 47.64527 | 4.80722 | 38001 ft | 484 kts | 311° |
| 2026-05-04 01:27 | 47.69346 | 4.73756 | 38001 ft | 484 kts | 311° |
| 2026-05-04 01:28 | 47.74166 | 4.66769 | 37997 ft | 485 kts | 311° |
| 2026-05-04 01:28 | 47.78993 | 4.59750 | 37991 ft | 486 kts | 311° |
| 2026-05-04 01:29 | 47.83826 | 4.52705 | 37982 ft | 487 kts | 311° |
| 2026-05-04 01:29 | 47.88658 | 4.45643 | 37984 ft | 487 kts | 311° |
| 2026-05-04 01:30 | 47.93484 | 4.38570 | 37997 ft | 487 kts | 311° |
| 2026-05-04 01:30 | 47.98314 | 4.31471 | 37976 ft | 487 kts | 310° |
| 2026-05-04 01:31 | 48.03101 | 4.24416 | 37981 ft | 487 kts | 310° |
| 2026-05-04 01:31 | 48.07925 | 4.17285 | 37972 ft | 488 kts | 311° |
| 2026-05-04 01:32 | 48.12756 | 4.10125 | 37973 ft | 489 kts | 310° |
| 2026-05-04 01:32 | 48.17583 | 4.02951 | 37972 ft | 489 kts | 310° |
| 2026-05-04 01:33 | 48.22408 | 3.95759 | 37972 ft | 489 kts | 310° |
| 2026-05-04 01:33 | 48.27230 | 3.88562 | 37968 ft | 489 kts | 310° |
| 2026-05-04 01:34 | 48.32044 | 3.81343 | 37967 ft | 489 kts | 310° |
| 2026-05-04 01:34 | 48.36853 | 3.74108 | 37966 ft | 489 kts | 310° |
| 2026-05-04 01:35 | 48.41656 | 3.66865 | 37962 ft | 490 kts | 310° |
| 2026-05-04 01:35 | 48.46473 | 3.59580 | 37964 ft | 491 kts | 310° |
| 2026-05-04 01:36 | 48.51290 | 3.52278 | 37964 ft | 491 kts | 310° |
| 2026-05-04 01:36 | 48.56072 | 3.45008 | 37975 ft | 491 kts | 310° |
| 2026-05-04 01:37 | 48.60545 | 3.38190 | 37975 ft | 493 kts | 310° |
| 2026-05-04 01:37 | 48.65378 | 3.30800 | 37961 ft | 496 kts | 310° |
| 2026-05-04 01:38 | 48.70229 | 3.23365 | 37960 ft | 496 kts | 310° |
| 2026-05-04 01:38 | 48.75077 | 3.15911 | 37960 ft | 496 kts | 310° |
| 2026-05-04 01:39 | 48.79912 | 3.08456 | 37963 ft | 496 kts | 310° |
| 2026-05-04 01:39 | 48.84992 | 3.01331 | 37964 ft | 500 kts | 321° |
| 2026-05-04 01:40 | 48.90906 | 2.95706 | 37959 ft | 503 kts | 326° |
| 2026-05-04 01:40 | 48.96976 | 2.90390 | 37961 ft | 503 kts | 327° |
| 2026-05-04 01:41 | 49.03063 | 2.85108 | 37962 ft | 503 kts | 327° |
| 2026-05-04 01:41 | 49.09142 | 2.79787 | 37965 ft | 504 kts | 327° |
| 2026-05-04 01:42 | 49.15184 | 2.74459 | 37965 ft | 505 kts | 326° |
| 2026-05-04 01:42 | 49.21265 | 2.69076 | 37964 ft | 505 kts | 326° |
| 2026-05-04 01:43 | 49.27343 | 2.63681 | 37966 ft | 505 kts | 326° |
| 2026-05-04 01:43 | 49.33413 | 2.58278 | 37959 ft | 505 kts | 326° |
| 2026-05-04 01:44 | 49.39488 | 2.52856 | 37963 ft | 505 kts | 326° |
| 2026-05-04 01:44 | 49.45561 | 2.47420 | 37962 ft | 505 kts | 326° |
| 2026-05-04 01:45 | 49.51622 | 2.41979 | 37971 ft | 505 kts | 326° |
| 2026-05-04 01:45 | 49.60866 | 2.34071 | 37962 ft | 507 kts | 328° |
| 2026-05-04 01:46 | 49.67062 | 2.28893 | 37963 ft | 507 kts | 328° |
| 2026-05-04 01:46 | 49.73245 | 2.23667 | 37959 ft | 506 kts | 328° |
| 2026-05-04 01:47 | 49.79404 | 2.18418 | 37965 ft | 504 kts | 328° |
| 2026-05-04 01:47 | 49.85551 | 2.13155 | 37962 ft | 504 kts | 328° |
| 2026-05-04 01:48 | 49.91645 | 2.07924 | 37962 ft | 504 kts | 328° |
| 2026-05-04 01:48 | 49.97787 | 2.02638 | 37894 ft | 504 kts | 327° |
| 2026-05-04 01:49 | 50.00841 | 2.00006 | 37550 ft | 500 kts | 327° |
| 2026-05-04 01:49 | 50.03871 | 1.97392 | 36956 ft | 497 kts | 327° |
| 2026-05-04 01:49 | 50.06887 | 1.94784 | 36339 ft | 495 kts | 326° |
| 2026-05-04 01:49 | 50.09900 | 1.92176 | 35704 ft | 494 kts | 325° |
| 2026-05-04 01:50 | 50.12889 | 1.89583 | 35084 ft | 492 kts | 324° |
| 2026-05-04 01:50 | 50.15820 | 1.86902 | 34575 ft | 483 kts | 319° |
| 2026-05-04 01:50 | 50.18426 | 1.83725 | 34150 ft | 469 kts | 310° |
| 2026-05-04 01:50 | 50.20828 | 1.80313 | 33658 ft | 463 kts | 309° |
| 2026-05-04 01:51 | 50.23146 | 1.76875 | 33189 ft | 456 kts | 307° |
| 2026-05-04 01:51 | 50.25408 | 1.73437 | 32750 ft | 451 kts | 307° |
| 2026-05-04 01:51 | 50.27629 | 1.70023 | 32314 ft | 445 kts | 307° |
| 2026-05-04 01:51 | 50.29793 | 1.66688 | 31899 ft | 440 kts | 306° |
| 2026-05-04 01:52 | 50.31961 | 1.63344 | 31482 ft | 435 kts | 306° |
| 2026-05-04 01:52 | 50.34109 | 1.60037 | 31066 ft | 430 kts | 306° |
| 2026-05-04 01:52 | 50.36236 | 1.56763 | 30669 ft | 427 kts | 306° |
| 2026-05-04 01:52 | 50.38349 | 1.53509 | 30247 ft | 425 kts | 306° |
| 2026-05-04 01:53 | 50.40445 | 1.50280 | 29796 ft | 421 kts | 306° |
| 2026-05-04 01:53 | 50.42524 | 1.47076 | 29389 ft | 416 kts | 306° |
| 2026-05-04 01:53 | 50.44576 | 1.43913 | 28991 ft | 411 kts | 306° |
| 2026-05-04 01:53 | 50.46598 | 1.40791 | 28597 ft | 406 kts | 306° |
| 2026-05-04 01:54 | 50.48604 | 1.37685 | 28204 ft | 404 kts | 307° |
| 2026-05-04 01:54 | 50.50588 | 1.34561 | 27803 ft | 402 kts | 305° |
| 2026-05-04 01:54 | 50.52476 | 1.31351 | 27414 ft | 398 kts | 304° |
| 2026-05-04 01:54 | 50.54333 | 1.28140 | 27026 ft | 396 kts | 305° |
| 2026-05-04 01:55 | 50.56184 | 1.24958 | 26636 ft | 393 kts | 305° |
| 2026-05-04 01:55 | 50.58028 | 1.21803 | 26242 ft | 390 kts | 306° |
| 2026-05-04 01:55 | 50.59918 | 1.18744 | 25865 ft | 389 kts | 308° |
| 2026-05-04 01:55 | 50.61829 | 1.15763 | 25468 ft | 386 kts | 309° |
| 2026-05-04 01:56 | 50.63729 | 1.12793 | 25084 ft | 383 kts | 309° |
| 2026-05-04 01:56 | 50.65613 | 1.09832 | 24686 ft | 380 kts | 309° |
| 2026-05-04 01:56 | 50.66847 | 1.07887 | 24441 ft | 378 kts | 309° |
| 2026-05-04 01:56 | 50.69318 | 1.03980 | 23921 ft | 374 kts | 310° |
| 2026-05-04 01:57 | 50.70533 | 1.02054 | 23661 ft | 373 kts | 310° |
| 2026-05-04 01:57 | 50.72353 | 0.99165 | 23243 ft | 370 kts | 310° |
| 2026-05-04 01:57 | 50.74160 | 0.96294 | 22838 ft | 367 kts | 310° |
| 2026-05-04 01:57 | 50.75951 | 0.93443 | 22471 ft | 365 kts | 310° |
| 2026-05-04 01:58 | 50.78313 | 0.89678 | 21971 ft | 363 kts | 311° |
| 2026-05-04 01:58 | 50.79507 | 0.87772 | 21705 ft | 361 kts | 311° |
| 2026-05-04 01:58 | 50.81274 | 0.84950 | 21330 ft | 359 kts | 311° |
| 2026-05-04 01:58 | 50.83027 | 0.82148 | 20956 ft | 357 kts | 311° |
| 2026-05-04 01:59 | 50.84769 | 0.79359 | 20586 ft | 355 kts | 311° |
| 2026-05-04 01:59 | 50.86497 | 0.76592 | 20208 ft | 353 kts | 311° |
| 2026-05-04 01:59 | 50.88220 | 0.73829 | 19844 ft | 351 kts | 311° |
| 2026-05-04 01:59 | 50.89929 | 0.71083 | 19482 ft | 349 kts | 311° |
| 2026-05-04 02:00 | 50.91626 | 0.68351 | 19109 ft | 347 kts | 311° |
| 2026-05-04 02:00 | 50.93856 | 0.64760 | 18634 ft | 344 kts | 311° |
| 2026-05-04 02:00 | 50.94990 | 0.62932 | 18390 ft | 343 kts | 311° |
| 2026-05-04 02:00 | 50.96659 | 0.60237 | 18003 ft | 341 kts | 311° |
| 2026-05-04 02:01 | 50.98343 | 0.57523 | 17562 ft | 352 kts | 311° |
| 2026-05-04 02:01 | 51.00080 | 0.54708 | 17165 ft | 360 kts | 311° |
| 2026-05-04 02:01 | 51.01818 | 0.51892 | 16478 ft | 363 kts | 311° |
| 2026-05-04 02:01 | 51.03586 | 0.49026 | 15892 ft | 363 kts | 311° |
| 2026-05-04 02:02 | 51.05348 | 0.46168 | 15353 ft | 361 kts | 311° |
| 2026-05-04 02:02 | 51.07102 | 0.43321 | 14816 ft | 360 kts | 312° |
| 2026-05-04 02:02 | 51.08884 | 0.40547 | 14298 ft | 359 kts | 314° |
| 2026-05-04 02:02 | 51.10696 | 0.37818 | 13733 ft | 357 kts | 314° |
| 2026-05-04 02:03 | 51.12489 | 0.35111 | 13181 ft | 355 kts | 314° |
| 2026-05-04 02:03 | 51.14267 | 0.32414 | 12673 ft | 351 kts | 314° |
| 2026-05-04 02:03 | 51.16000 | 0.29774 | 12431 ft | 339 kts | 314° |
| 2026-05-04 02:03 | 51.17675 | 0.27218 | 12199 ft | 328 kts | 314° |
| 2026-05-04 02:04 | 51.19292 | 0.24747 | 12000 ft | 317 kts | 314° |
| 2026-05-04 02:04 | 51.20862 | 0.22347 | 11721 ft | 308 kts | 314° |
| 2026-05-04 02:04 | 51.22396 | 0.19988 | 11346 ft | 304 kts | 313° |
| 2026-05-04 02:04 | 51.23909 | 0.17657 | 10947 ft | 301 kts | 314° |
| 2026-05-04 02:05 | 51.25411 | 0.15343 | 10553 ft | 298 kts | 314° |
| 2026-05-04 02:05 | 51.26897 | 0.13052 | 10144 ft | 296 kts | 314° |
| 2026-05-04 02:05 | 51.28371 | 0.10780 | 9766 ft | 292 kts | 314° |
| 2026-05-04 02:05 | 51.29789 | 0.08593 | 9551 ft | 282 kts | 313° |
| 2026-05-04 02:06 | 51.31172 | 0.06459 | 9366 ft | 271 kts | 313° |
| 2026-05-04 02:06 | 51.32504 | 0.04402 | 9142 ft | 262 kts | 313° |
| 2026-05-04 02:06 | 51.33806 | 0.02399 | 8808 ft | 258 kts | 314° |
| 2026-05-04 02:07 | 51.36371 | -0.01435 | 8084 ft | 254 kts | 315° |
| 2026-05-04 02:07 | 51.37675 | -0.03383 | 7692 ft | 253 kts | 315° |
| 2026-05-04 02:07 | 51.38939 | -0.05273 | 7338 ft | 251 kts | 314° |
| 2026-05-04 02:07 | 51.40210 | -0.07179 | 7029 ft | 248 kts | 314° |
| 2026-05-04 02:08 | 51.41470 | -0.09035 | 6720 ft | 245 kts | 317° |
| 2026-05-04 02:08 | 51.42979 | -0.10278 | 6365 ft | 247 kts | 343° |
| 2026-05-04 02:08 | 51.44665 | -0.10784 | 6009 ft | 246 kts | 350° |
| 2026-05-04 02:08 | 51.46368 | -0.11177 | 5557 ft | 248 kts | 347° |
| 2026-05-04 02:09 | 51.47923 | -0.12294 | 5094 ft | 245 kts | 318° |
| 2026-05-04 02:09 | 51.48918 | -0.14464 | 4651 ft | 242 kts | 288° |
| 2026-05-04 02:09 | 51.49110 | -0.17091 | 4188 ft | 235 kts | 261° |
| 2026-05-04 02:09 | 51.48701 | -0.19577 | 3715 ft | 228 kts | 248° |
| 2026-05-04 02:10 | 51.48103 | -0.21892 | 3253 ft | 222 kts | 246° |
| 2026-05-04 02:10 | 51.47491 | -0.24130 | 2837 ft | 214 kts | 246° |
| 2026-05-04 02:10 | 51.46900 | -0.26254 | 2426 ft | 201 kts | 246° |
| 2026-05-04 02:10 | 51.46359 | -0.28228 | 2088 ft | 185 kts | 249° |
| 2026-05-04 02:11 | 51.46151 | -0.30083 | 1997 ft | 158 kts | 267° |
| 2026-05-04 02:11 | 51.45955 | -0.31700 | 1997 ft | 146 kts | 241° |
| 2026-05-04 02:11 | 51.45101 | -0.32715 | 2040 ft | 168 kts | 196° |
| 2026-05-04 02:11 | 51.43909 | -0.32516 | 2162 ft | 183 kts | 158° |
| 2026-05-04 02:12 | 51.42977 | -0.31112 | 2262 ft | 190 kts | 118° |
| 2026-05-04 02:12 | 51.42618 | -0.29078 | 2381 ft | 190 kts | 99° |
| 2026-05-04 02:12 | 51.42461 | -0.26969 | 2478 ft | 191 kts | 96° |
| 2026-05-04 02:12 | 51.42333 | -0.24849 | 2515 ft | 191 kts | 96° |
| 2026-05-04 02:13 | 51.42209 | -0.22728 | 2520 ft | 191 kts | 96° |
| 2026-05-04 02:13 | 51.42083 | -0.20608 | 2519 ft | 191 kts | 96° |
| 2026-05-04 02:13 | 51.42000 | -0.18489 | 2515 ft | 191 kts | 91° |
| 2026-05-04 02:13 | 51.41996 | -0.16361 | 2514 ft | 191 kts | 88° |
| 2026-05-04 02:14 | 51.42472 | -0.14400 | 2516 ft | 192 kts | 50° |
| 2026-05-04 02:14 | 51.43579 | -0.13288 | 2522 ft | 189 kts | 15° |
| 2026-05-04 02:14 | 51.44861 | -0.12885 | 2514 ft | 188 kts | 6° |
| 2026-05-04 02:14 | 51.46075 | -0.13464 | 2497 ft | 186 kts | 318° |
| 2026-05-04 02:15 | 51.46651 | -0.15245 | 2500 ft | 182 kts | 278° |
| 2026-05-04 02:15 | 51.46645 | -0.17258 | 2510 ft | 182 kts | 264° |
| 2026-05-04 02:15 | 51.46583 | -0.19288 | 2510 ft | 183 kts | 269° |
| 2026-05-04 02:15 | 51.46585 | -0.21325 | 2512 ft | 182 kts | 269° |
| 2026-05-04 02:16 | 51.46580 | -0.23305 | 2514 ft | 170 kts | 269° |
| 2026-05-04 02:16 | 51.46572 | -0.25151 | 2457 ft | 168 kts | 269° |
| 2026-05-04 02:16 | 51.46563 | -0.27029 | 2196 ft | 165 kts | 269° |
| 2026-05-04 02:16 | 51.46554 | -0.28832 | 1977 ft | 161 kts | 269° |
| 2026-05-04 02:17 | 51.46546 | -0.30610 | 1750 ft | 154 kts | 270° |
| 2026-05-04 02:17 | 51.46538 | -0.32287 | 1523 ft | 148 kts | 270° |
| 2026-05-04 02:17 | 51.46531 | -0.33945 | 1327 ft | 149 kts | 270° |
| 2026-05-04 02:17 | 51.46524 | -0.35603 | 1117 ft | 149 kts | 270° |
| 2026-05-04 02:18 | 51.46517 | -0.37242 | 910 ft | 149 kts | 269° |
| 2026-05-04 02:18 | 51.46511 | -0.38923 | 695 ft | 149 kts | 269° |
| 2026-05-04 02:18 | 51.46503 | -0.40560 | 486 ft | 148 kts | 270° |
| 2026-05-04 02:18 | 51.46500 | -0.42207 | 298 ft | 148 kts | 270° |
| 2026-05-04 02:19 | 51.46494 | -0.43872 | 113 ft | 150 kts | 270° |
| 2026-05-04 02:19 | 51.46491 | -0.45448 | 95 ft | 127 kts | 270° |
| 2026-05-04 02:19 | 51.46486 | -0.46680 | 99 ft | 81 kts | 269° |
| 2026-05-04 02:19 | 51.46482 | -0.47278 | 95 ft | 22 kts | 270° |
| 2026-05-04 02:20 | 51.46500 | -0.47463 | 95 ft | 14 kts | 308° |
| 2026-05-04 02:20 | 51.46577 | -0.47495 | 95 ft | 10 kts | 359° |
| 2026-05-04 02:20 | 51.46641 | -0.47468 | 96 ft | 10 kts | 40° |
| 2026-05-04 02:20 | 51.46660 | -0.47363 | 95 ft | 11 kts | 92° |
| 2026-05-04 02:21 | 51.46657 | -0.47235 | 96 ft | 12 kts | 92° |
| 2026-05-04 02:21 | 51.46657 | -0.47095 | 96 ft | 13 kts | 90° |
| 2026-05-04 02:21 | 51.46657 | -0.46943 | 96 ft | 14 kts | 90° |
| 2026-05-04 02:21 | 51.46656 | -0.46777 | 96 ft | 15 kts | 90° |
| 2026-05-04 02:22 | 51.46657 | -0.46601 | 96 ft | 16 kts | 89° |
| 2026-05-04 02:22 | 51.46671 | -0.46445 | 96 ft | 12 kts | 49° |
| 2026-05-04 02:22 | 51.46742 | -0.46422 | 93 ft | 10 kts | 359° |
| 2026-05-04 02:22 | 51.46801 | -0.46454 | 96 ft | 8 kts | 328° |
| 2026-05-04 02:23 | 51.46847 | -0.46503 | 96 ft | 8 kts | 326° |
| 2026-05-04 02:23 | 51.46891 | -0.46551 | 97 ft | 8 kts | 325° |
| 2026-05-04 02:23 | 51.46943 | -0.46607 | 96 ft | 10 kts | 325° |
| 2026-05-04 02:23 | 51.46995 | -0.46584 | 97 ft | 8 kts | 45° |
| 2026-05-04 02:24 | 51.47017 | -0.46538 | 97 ft | 0 kts | 54° |
| 2026-05-04 02:24 | 51.47018 | -0.46536 | 97 ft | 0 kts | 55° |